Terminal Aerodrome Forecast
Issued by NWS

Home | Current Version | Previous Version | Text Only | Print | Product List | Glossary On
Versions: 1 2 3 4 5 6 7 8 9 10 11 12 13 14 15
000
FTUS45 KPIH 201100
TAFSUN
TAF
KSUN 201120Z 2012/2112 31007KT P6SM SKC
     FM201700 13008KT P6SM SKC
     FM210400 31008KT P6SM SKC
      AMD LTD TO CLD VIS AND WIND TIL 201300=

USA.gov is the U.S. government's official web portal to all federal, state and local government web resources and services.